createdAt,value
2022-12-25T00:01:22.521Z,4.13
2022-12-25T00:05:24.303Z,4.19
2022-12-25T00:09:25.915Z,4.27
2022-12-25T00:13:27.804Z,4.39
2022-12-25T00:17:30.571Z,4.54
2022-12-25T00:21:31.974Z,4.65
2022-12-25T00:25:33.441Z,4.82
2022-12-25T00:29:35.026Z,5.13
2022-12-25T00:33:39.267Z,5.38
2022-12-25T00:37:40.657Z,5.51
2022-12-25T00:41:42.053Z,5.54
2022-12-25T00:45:43.497Z,5.45
2022-12-25T00:49:46.320Z,5.17
2022-12-25T00:53:47.729Z,4.83
2022-12-25T00:57:49.133Z,4.56
2022-12-25T01:01:50.868Z,4.44
2022-12-25T01:05:56.785Z,4.27
2022-12-25T01:09:58.290Z,4.17
2022-12-25T01:13:59.751Z,4.05
2022-12-25T01:18:07.301Z,3.84
2022-12-25T01:22:11.611Z,3.66
2022-12-25T01:26:15.913Z,3.77
2022-12-25T01:30:17.328Z,3.99
2022-12-25T01:34:18.729Z,4.01
2022-12-25T01:38:21.492Z,4.05
2022-12-25T01:42:22.922Z,4.02
2022-12-25T01:46:24.519Z,3.91
2022-12-25T01:50:27.300Z,3.77
2022-12-25T01:54:33.262Z,3.67
2022-12-25T01:58:35.691Z,3.59
2022-12-25T02:02:38.322Z,3.49
2022-12-25T02:06:39.881Z,3.40
2022-12-25T02:10:42.851Z,3.46
2022-12-25T02:14:44.843Z,3.51
2022-12-25T02:18:51.700Z,3.46
2022-12-25T02:23:11.704Z,3.41
2022-12-25T02:27:31.372Z,3.48
2022-12-25T02:31:41.083Z,3.44
2022-12-25T02:35:46.813Z,3.50
2022-12-25T02:39:55.636Z,3.39
2022-12-25T02:43:59.402Z,3.42
2022-12-25T02:48:03.209Z,3.46
2022-12-25T02:52:08.799Z,3.45
2022-12-25T02:56:10.740Z,3.42
2022-12-25T03:00:14.055Z,3.23
2022-12-25T03:04:21.244Z,3.22
2022-12-25T03:08:27.816Z,3.14
2022-12-25T03:12:38.481Z,2.68
2022-12-25T03:16:39.931Z,2.46
2022-12-25T03:20:43.075Z,2.48
2022-12-25T03:24:44.836Z,2.55
2022-12-25T03:28:46.252Z,2.60
2022-12-25T03:32:53.896Z,3.10
2022-12-25T03:37:14.730Z,3.04
2022-12-25T03:41:26.276Z,3.14
2022-12-25T03:45:36.606Z,3.04
2022-12-25T03:49:45.385Z,2.85
2022-12-25T03:53:54.279Z,2.69
2022-12-25T03:57:55.802Z,2.50
2022-12-25T04:01:57.317Z,2.43
2022-12-25T04:05:58.820Z,2.41
2022-12-25T04:10:01.579Z,2.43
2022-12-25T04:14:02.986Z,2.45
2022-12-25T04:18:04.852Z,2.44
2022-12-25T04:22:06.240Z,2.45
2022-12-25T04:26:08.974Z,2.44
2022-12-25T04:30:10.765Z,2.34
2022-12-25T04:34:12.215Z,2.32
2022-12-25T04:38:13.611Z,2.29
2022-12-25T04:42:16.958Z,2.34
2022-12-25T04:46:18.441Z,2.02
2022-12-25T04:50:19.927Z,1.93
2022-12-25T04:54:21.367Z,1.79
2022-12-25T04:58:24.171Z,1.54
2022-12-25T05:02:25.852Z,1.50
2022-12-25T05:06:27.840Z,1.54
2022-12-25T05:10:29.267Z,1.88
2022-12-25T05:14:32.001Z,2.24
2022-12-25T05:18:33.422Z,2.57
2022-12-25T05:22:34.865Z,2.87
2022-12-25T05:26:36.954Z,2.81
2022-12-25T05:30:40.028Z,2.91
2022-12-25T05:34:41.501Z,3.04
2022-12-25T05:38:42.897Z,3.01
2022-12-25T05:42:44.283Z,3.16
2022-12-25T05:46:47.111Z,3.00
2022-12-25T05:50:48.639Z,2.82
2022-12-25T05:54:50.053Z,2.67
2022-12-25T05:58:51.625Z,2.61
2022-12-25T06:02:54.434Z,2.65
2022-12-25T06:06:55.944Z,2.68
2022-12-25T06:10:57.369Z,2.69
2022-12-25T06:14:58.774Z,3.02
2022-12-25T06:19:01.517Z,3.01
2022-12-25T06:23:02.951Z,3.00
2022-12-25T06:27:04.355Z,3.13
2022-12-25T06:31:06.869Z,3.31
2022-12-25T06:35:09.764Z,3.40
2022-12-25T06:39:11.183Z,3.40
2022-12-25T06:43:12.589Z,3.38
2022-12-25T06:47:13.993Z,3.40
2022-12-25T06:51:17.652Z,3.26
2022-12-25T06:55:19.063Z,3.18
2022-12-25T06:59:20.727Z,3.20
2022-12-25T07:03:22.424Z,3.21
2022-12-25T07:07:25.223Z,3.20
2022-12-25T07:11:26.675Z,3.16
2022-12-25T07:15:28.089Z,3.15
2022-12-25T07:19:29.621Z,3.14
2022-12-25T07:23:32.356Z,3.15
2022-12-25T07:27:33.760Z,3.20
2022-12-25T07:31:35.220Z,3.28
2022-12-25T07:35:36.654Z,3.42
2022-12-25T07:39:39.400Z,3.32
2022-12-25T07:43:41.571Z,3.21
2022-12-25T07:47:43.167Z,3.16
2022-12-25T07:51:44.662Z,3.19
2022-12-25T07:55:47.423Z,3.23
2022-12-25T07:59:48.809Z,3.34
2022-12-25T08:03:51.283Z,3.41
2022-12-25T08:07:57.332Z,3.37
2022-12-25T08:12:00.863Z,3.38
2022-12-25T08:16:03.874Z,3.43
2022-12-25T08:20:06.721Z,3.53
2022-12-25T08:24:08.321Z,3.56
2022-12-25T08:28:11.061Z,3.68
2022-12-25T08:32:12.479Z,3.65
2022-12-25T08:36:14.337Z,3.72
2022-12-25T08:40:16.079Z,3.74
2022-12-25T08:44:19.088Z,3.78
2022-12-25T08:48:20.603Z,3.86
2022-12-25T08:52:22.013Z,3.97
2022-12-25T08:56:23.407Z,4.00
2022-12-25T09:00:26.160Z,4.15
2022-12-25T09:04:27.749Z,4.35
2022-12-25T09:08:29.381Z,4.47
2022-12-25T09:12:30.789Z,4.57
2022-12-25T09:16:33.568Z,4.60
2022-12-25T09:20:35.031Z,4.70
2022-12-25T09:24:36.488Z,4.82
2022-12-25T09:28:37.997Z,4.86
2022-12-25T09:32:40.776Z,4.83
2022-12-25T09:36:42.190Z,4.72
2022-12-25T09:40:43.679Z,4.69
2022-12-25T09:44:49.753Z,4.86
2022-12-25T09:48:57.249Z,5.02
2022-12-25T09:53:06.093Z,5.25
2022-12-25T09:57:10.977Z,5.42
2022-12-25T10:01:18.758Z,5.50
2022-12-25T10:05:44.377Z,5.44
2022-12-25T10:10:02.654Z,5.28
2022-12-25T10:14:13.649Z,5.10
2022-12-25T10:18:38.432Z,4.98
2022-12-25T10:22:44.227Z,5.09
2022-12-25T10:26:45.715Z,5.22
2022-12-25T10:30:51.413Z,5.27
2022-12-25T10:34:53.189Z,5.29
2022-12-25T10:38:56.408Z,5.28
2022-12-25T10:43:07.462Z,5.44
2022-12-25T10:47:08.880Z,5.54
2022-12-25T10:51:10.523Z,5.52
2022-12-25T10:55:23.502Z,5.59
2022-12-25T10:59:30.235Z,5.88
2022-12-25T11:03:34.130Z,6.42
2022-12-25T11:07:38.050Z,6.84
2022-12-25T11:11:41.210Z,7.12
2022-12-25T11:15:44.641Z,7.39
2022-12-25T11:19:52.550Z,7.34
2022-12-25T11:23:59.412Z,7.24
2022-12-25T11:28:04.769Z,7.06
2022-12-25T11:32:12.879Z,6.99
2022-12-25T11:36:20.122Z,6.96
2022-12-25T11:40:24.976Z,6.96
2022-12-25T11:44:37.637Z,6.99
2022-12-25T11:48:43.905Z,7.05
2022-12-25T11:52:47.245Z,7.09
2022-12-25T11:56:48.846Z,7.24
2022-12-25T12:00:54.989Z,7.25
2022-12-25T12:05:07.371Z,7.30
2022-12-25T12:09:24.779Z,7.37
2022-12-25T12:13:40.965Z,7.35
2022-12-25T12:17:43.719Z,7.44
2022-12-25T12:21:48.835Z,7.50
2022-12-25T12:25:50.571Z,7.58
2022-12-25T12:29:54.395Z,7.68
2022-12-25T12:33:59.470Z,7.77
2022-12-25T12:38:03.848Z,7.80
2022-12-25T12:42:13.731Z,7.82
2022-12-25T12:46:23.056Z,7.99
2022-12-25T12:50:36.473Z,7.97
2022-12-25T12:54:54.777Z,8.05
2022-12-25T12:58:56.274Z,8.11
2022-12-25T13:03:19.020Z,8.08
2022-12-25T13:07:34.043Z,7.97
2022-12-25T13:11:40.036Z,7.93
2022-12-25T13:15:41.486Z,7.79
2022-12-25T13:19:44.329Z,7.83
2022-12-25T13:23:47.294Z,7.85
2022-12-25T13:27:55.271Z,7.82
2022-12-25T13:31:57.899Z,7.81
2022-12-25T13:35:59.484Z,7.65
2022-12-25T13:40:06.825Z,7.60
2022-12-25T13:44:18.138Z,7.52
2022-12-25T13:48:20.088Z,7.48
2022-12-25T13:52:23.774Z,7.36
2022-12-25T13:56:26.523Z,7.28
2022-12-25T14:00:32.374Z,7.25
2022-12-25T14:04:43.929Z,7.24
2022-12-25T14:08:46.184Z,7.23
2022-12-25T14:12:50.474Z,7.15
2022-12-25T14:16:56.455Z,7.09
2022-12-25T14:20:59.573Z,7.08
2022-12-25T14:25:01.058Z,7.04
2022-12-25T14:29:16.740Z,7.01
2022-12-25T14:33:21.727Z,6.96
2022-12-25T14:37:27.682Z,6.91
2022-12-25T14:41:34.364Z,6.91
2022-12-25T14:45:38.208Z,6.94
2022-12-25T14:49:40.768Z,6.89
2022-12-25T14:53:48.869Z,6.89
2022-12-25T14:57:53.567Z,6.92
2022-12-25T15:01:59.348Z,6.94
2022-12-25T15:06:01.941Z,7.03
2022-12-25T15:10:57.019Z,7.02
2022-12-25T15:14:27.051Z,7.11
2022-12-25T15:18:34.001Z,7.11
2022-12-25T15:23:02.391Z,7.11
2022-12-25T15:26:56.783Z,7.18
2022-12-25T15:30:58.217Z,7.13
2022-12-25T15:35:01.038Z,7.15
2022-12-25T15:39:02.455Z,7.07
2022-12-25T15:43:11.544Z,7.08
2022-12-25T15:47:23.827Z,7.10
2022-12-25T15:51:27.138Z,7.07
2022-12-25T15:55:28.559Z,7.14
2022-12-25T15:59:30.807Z,7.22
2022-12-25T16:03:32.337Z,7.17
2022-12-25T16:07:35.127Z,7.15
2022-12-25T16:11:36.612Z,7.13
2022-12-25T16:15:38.068Z,7.06
2022-12-25T16:19:39.483Z,7.06
2022-12-25T16:23:42.229Z,7.06
2022-12-25T16:27:43.755Z,7.10
2022-12-25T16:31:45.208Z,7.10
2022-12-25T16:35:46.672Z,7.15
2022-12-25T16:39:49.417Z,7.19
2022-12-25T16:43:50.846Z,7.25
2022-12-25T16:47:52.263Z,7.23
2022-12-25T16:51:53.672Z,7.15
2022-12-25T16:56:05.347Z,7.09
2022-12-25T17:00:08.129Z,7.03
2022-12-25T17:04:09.856Z,7.05
2022-12-25T17:08:11.282Z,7.09
2022-12-25T17:12:14.772Z,7.09
2022-12-25T17:16:18.619Z,7.04
2022-12-25T17:20:20.057Z,7.07
2022-12-25T17:24:21.638Z,7.15
2022-12-25T17:28:24.549Z,7.19
2022-12-25T17:32:25.992Z,7.22
2022-12-25T17:36:27.689Z,7.23
2022-12-25T17:40:29.125Z,7.32
2022-12-25T17:44:31.860Z,7.39
2022-12-25T17:48:33.881Z,7.40
2022-12-25T17:52:35.278Z,7.38
2022-12-25T17:56:37.153Z,7.38
2022-12-25T18:00:39.879Z,7.53
2022-12-25T18:04:41.305Z,7.50
2022-12-25T18:08:44.219Z,7.50
2022-12-25T18:12:45.785Z,7.50
2022-12-25T18:16:48.743Z,7.52
2022-12-25T18:20:53.026Z,7.47
2022-12-25T18:24:54.431Z,7.52
2022-12-25T18:28:56.236Z,7.60
2022-12-25T18:32:58.977Z,7.62
2022-12-25T18:37:00.465Z,7.65
2022-12-25T18:41:05.031Z,7.68
2022-12-25T18:45:08.361Z,7.77
2022-12-25T18:49:11.122Z,7.78
2022-12-25T18:53:12.521Z,7.82
2022-12-25T18:57:13.949Z,7.82
2022-12-25T19:01:17.962Z,7.80
2022-12-25T19:05:20.790Z,7.79
2022-12-25T19:09:22.227Z,7.80
2022-12-25T19:13:23.714Z,7.83
2022-12-25T19:17:31.342Z,7.84
2022-12-25T19:21:34.757Z,7.86
2022-12-25T19:25:38.711Z,7.93
2022-12-25T19:29:40.121Z,7.96
2022-12-25T19:33:42.090Z,8.03
2022-12-25T19:37:44.810Z,8.05
2022-12-25T19:41:46.455Z,8.25
2022-12-25T19:45:47.944Z,8.46
2022-12-25T19:49:53.040Z,8.65
2022-12-25T19:53:56.776Z,8.72
2022-12-25T19:57:58.156Z,8.74
2022-12-25T20:01:59.746Z,8.91
2022-12-25T20:06:01.794Z,9.03
2022-12-25T20:10:05.156Z,9.15
2022-12-25T20:14:08.184Z,9.27
2022-12-25T20:18:09.642Z,9.19
2022-12-25T20:22:11.058Z,9.20
2022-12-25T20:26:14.873Z,9.21
2022-12-25T20:30:16.440Z,9.20
2022-12-25T20:34:17.839Z,9.30
2022-12-25T20:38:19.304Z,9.37
2022-12-25T20:42:22.059Z,9.43
2022-12-25T20:46:24.053Z,9.49
2022-12-25T20:50:25.645Z,9.42
2022-12-25T20:54:27.082Z,9.42
2022-12-25T20:58:30.145Z,9.49
2022-12-25T21:02:35.789Z,9.45
2022-12-25T21:06:37.800Z,9.56
2022-12-25T21:10:39.203Z,9.59
2022-12-25T21:14:41.933Z,9.67
2022-12-25T21:18:43.387Z,9.65
2022-12-25T21:22:44.777Z,9.67
2022-12-25T21:26:48.110Z,9.74
2022-12-25T21:30:51.178Z,9.77
2022-12-25T21:34:52.637Z,9.78
2022-12-25T21:38:56.636Z,9.73
2022-12-25T21:42:58.027Z,9.63
2022-12-25T21:47:00.754Z,9.51
2022-12-25T21:51:02.819Z,9.47
2022-12-25T21:55:04.617Z,9.48
2022-12-25T21:59:07.798Z,9.47
2022-12-25T22:03:10.533Z,9.48
2022-12-25T22:07:13.301Z,9.40
2022-12-25T22:11:14.702Z,9.35
2022-12-25T22:15:16.114Z,9.22
2022-12-25T22:19:18.844Z,9.18
2022-12-25T22:23:20.234Z,9.14
2022-12-25T22:27:22.118Z,9.08
2022-12-25T22:31:23.529Z,9.04
2022-12-25T22:35:26.299Z,9.20
2022-12-25T22:39:28.989Z,9.27
2022-12-25T22:43:50.860Z,9.33
2022-12-25T22:47:51.803Z,9.42
2022-12-25T22:51:55.220Z,9.40
2022-12-25T22:55:56.640Z,9.51
2022-12-25T22:59:58.063Z,9.69
2022-12-25T23:03:59.605Z,9.71
2022-12-25T23:08:02.547Z,9.71
2022-12-25T23:12:04.605Z,9.73
2022-12-25T23:16:06.342Z,9.66
2022-12-25T23:20:09.150Z,9.76
2022-12-25T23:24:12.117Z,9.78
2022-12-25T23:28:13.545Z,9.83
2022-12-25T23:32:17.874Z,9.79
2022-12-25T23:36:19.320Z,9.79
2022-12-25T23:40:22.059Z,9.77
2022-12-25T23:44:24.046Z,9.79
2022-12-25T23:48:25.534Z,10.29
2022-12-25T23:52:26.927Z,10.33
2022-12-25T23:56:29.673Z,10.52
